createdAt,value
2019-03-19T00:01:02.543Z,4.00
2019-03-19T00:03:34.221Z,4.00
2019-03-19T00:06:04.955Z,4.00
2019-03-19T00:08:36.509Z,4.00
2019-03-19T00:11:07.223Z,4.00
2019-03-19T00:13:37.893Z,4.10
2019-03-19T00:16:08.729Z,4.10
2019-03-19T00:18:39.551Z,4.10
2019-03-19T00:21:10.311Z,4.10
2019-03-19T00:23:41.472Z,4.00
2019-03-19T00:26:13.395Z,4.00
2019-03-19T00:28:43.956Z,4.00
2019-03-19T00:31:14.576Z,3.90
2019-03-19T00:37:44.282Z,3.90
2019-03-19T00:40:17.513Z,3.80
2019-03-19T00:42:50.477Z,3.80
2019-03-19T00:45:21.003Z,3.70
2019-03-19T00:47:57.813Z,3.70
2019-03-19T00:50:29.471Z,3.70
2019-03-19T00:53:02.345Z,3.70
2019-03-19T00:55:40.591Z,3.60
2019-03-19T00:58:06.399Z,3.60
2019-03-19T01:00:36.951Z,3.50
2019-03-19T01:03:07.536Z,3.30
2019-03-19T01:05:38.101Z,3.30
2019-03-19T01:08:08.688Z,3.30
2019-03-19T01:10:43.935Z,3.20
2019-03-19T01:13:15.671Z,3.20
2019-03-19T01:15:51.707Z,3.20
2019-03-19T01:18:22.340Z,3.20
2019-03-19T01:20:55.664Z,3.20
2019-03-19T01:23:26.715Z,3.20
2019-03-19T01:25:59.017Z,3.20
2019-03-19T01:28:29.647Z,3.20
2019-03-19T01:31:01.269Z,3.20
2019-03-19T01:33:32.160Z,3.20
2019-03-19T01:36:03.257Z,3.20
2019-03-19T01:38:34.276Z,3.30
2019-03-19T01:41:07.604Z,3.40
2019-03-19T01:43:38.133Z,3.50
2019-03-19T01:46:09.138Z,3.50
2019-03-19T01:48:43.432Z,3.60
2019-03-19T01:51:14.140Z,3.60
2019-03-19T01:53:47.444Z,3.60
2019-03-19T01:56:18.333Z,3.60
2019-03-19T01:58:49.555Z,3.60
2019-03-19T02:01:22.497Z,3.70
2019-03-19T02:03:53.219Z,3.70
2019-03-19T02:06:23.870Z,3.70
2019-03-19T02:08:54.471Z,3.70
2019-03-19T02:11:27.596Z,3.70
2019-03-19T02:13:58.205Z,3.60
2019-03-19T02:16:31.849Z,3.60
2019-03-19T02:19:03.897Z,3.60
2019-03-19T02:21:34.928Z,3.70
2019-03-19T02:24:05.520Z,3.70
2019-03-19T02:26:39.417Z,3.70
2019-03-19T02:29:10.963Z,3.60
2019-03-19T02:31:41.895Z,3.60
2019-03-19T02:34:15.489Z,3.60
2019-03-19T02:36:48.036Z,3.60
2019-03-19T02:39:18.559Z,3.50
2019-03-19T02:41:49.204Z,3.50
2019-03-19T02:44:19.930Z,3.40
2019-03-19T02:46:50.545Z,3.40
2019-03-19T02:49:21.131Z,3.30
2019-03-19T02:51:54.855Z,3.30
2019-03-19T02:54:27.260Z,3.20
2019-03-19T02:56:57.871Z,3.20
2019-03-19T02:59:28.467Z,3.10
2019-03-19T03:02:00.108Z,3.10
2019-03-19T03:08:13.848Z,3.00
2019-03-19T03:10:44.386Z,2.90
2019-03-19T03:13:14.985Z,2.90
2019-03-19T03:15:45.546Z,3.00
2019-03-19T03:18:16.477Z,3.10
2019-03-19T03:20:52.776Z,3.00
2019-03-19T03:23:27.057Z,3.00
2019-03-19T03:25:59.410Z,3.00
2019-03-19T03:28:33.471Z,3.00
2019-03-19T03:34:57.981Z,2.90
2019-03-19T03:37:28.856Z,2.90
2019-03-19T03:40:01.384Z,2.90
2019-03-19T03:42:32.308Z,2.90
2019-03-19T03:45:03.435Z,3.00
2019-03-19T03:47:44.457Z,2.90
2019-03-19T03:54:23.225Z,2.80
2019-03-19T03:57:01.898Z,2.80
2019-03-19T03:59:26.473Z,2.80
2019-03-19T04:01:57.056Z,2.80
2019-03-19T04:04:32.212Z,2.80
2019-03-19T04:07:05.394Z,2.90
2019-03-19T04:13:19.721Z,3.00
2019-03-19T04:15:50.305Z,2.90
2019-03-19T04:18:23.007Z,2.90
2019-03-19T04:20:53.749Z,2.90
2019-03-19T04:23:24.657Z,3.00
2019-03-19T04:25:55.368Z,3.10
2019-03-19T04:28:25.892Z,3.00
2019-03-19T04:30:56.625Z,3.10
2019-03-19T04:33:27.215Z,3.10
2019-03-19T04:35:57.840Z,3.10
2019-03-19T04:38:30.847Z,3.00
2019-03-19T04:41:01.337Z,3.10
2019-03-19T04:47:26.504Z,3.00
2019-03-19T04:49:57.127Z,3.00
2019-03-19T04:52:31.378Z,2.90
2019-03-19T04:55:12.842Z,2.90
2019-03-19T04:57:45.780Z,2.80
2019-03-19T05:00:16.483Z,2.80
2019-03-19T05:02:47.214Z,2.70
2019-03-19T05:05:17.947Z,2.80
2019-03-19T05:07:48.609Z,2.80
2019-03-19T05:10:19.286Z,2.80
2019-03-19T05:16:20.448Z,2.90
2019-03-19T05:18:57.002Z,2.90
2019-03-19T05:21:28.025Z,2.90
2019-03-19T05:23:59.905Z,2.90
2019-03-19T05:26:30.824Z,3.00
2019-03-19T05:32:56.952Z,3.00
2019-03-19T05:35:31.043Z,3.00
2019-03-19T05:38:05.646Z,3.00
2019-03-19T05:44:14.276Z,3.00
2019-03-19T05:46:46.664Z,3.00
2019-03-19T05:49:23.025Z,3.00
2019-03-19T05:55:35.786Z,3.10
2019-03-19T05:58:09.006Z,3.10
2019-03-19T06:00:39.623Z,3.00
2019-03-19T06:03:13.427Z,3.00
2019-03-19T06:05:44.132Z,3.10
2019-03-19T06:08:14.855Z,3.00
2019-03-19T06:10:52.777Z,3.00
2019-03-19T06:17:30.106Z,3.10
2019-03-19T06:20:01.026Z,3.30
2019-03-19T06:22:35.665Z,3.60
2019-03-19T06:25:09.603Z,3.90
2019-03-19T06:27:40.996Z,4.20
2019-03-19T06:34:09.922Z,4.20
2019-03-19T06:36:43.427Z,4.20
2019-03-19T06:43:08.216Z,4.40
2019-03-19T06:45:38.948Z,4.80
2019-03-19T06:48:11.688Z,5.00
2019-03-19T06:54:32.058Z,5.30
2019-03-19T06:57:10.990Z,5.90
2019-03-19T06:59:44.460Z,6.30
2019-03-19T07:02:15.900Z,6.10
2019-03-19T07:04:48.571Z,6.20
2019-03-19T07:07:24.373Z,6.50
2019-03-19T07:09:55.121Z,6.60
2019-03-19T07:12:25.887Z,6.80
2019-03-19T07:18:49.923Z,6.90
2019-03-19T07:21:22.746Z,7.20
2019-03-19T07:27:35.683Z,7.80
2019-03-19T07:34:01.903Z,7.10
2019-03-19T07:36:35.139Z,6.60
2019-03-19T07:39:09.475Z,6.50
2019-03-19T07:41:43.915Z,6.40
2019-03-19T07:44:14.928Z,7.30
2019-03-19T07:46:46.079Z,7.40
2019-03-19T07:52:50.686Z,8.40
2019-03-19T07:55:23.495Z,9.10
2019-03-19T07:57:54.129Z,9.60
2019-03-19T08:04:24.434Z,9.50
2019-03-19T08:10:39.241Z,7.70
2019-03-19T08:13:10.399Z,6.80
2019-03-19T08:19:23.349Z,6.10
2019-03-19T08:21:54.497Z,6.10
2019-03-19T08:24:30.971Z,6.40
2019-03-19T08:27:03.061Z,6.70
2019-03-19T08:33:28.106Z,6.90
2019-03-19T08:36:09.242Z,6.80
2019-03-19T08:42:34.477Z,7.00
2019-03-19T08:45:07.723Z,9.50
2019-03-19T08:47:38.956Z,9.20
2019-03-19T08:50:14.494Z,10.00
2019-03-19T08:52:45.488Z,9.80
2019-03-19T08:55:16.381Z,9.70
2019-03-19T08:57:49.400Z,9.20
2019-03-19T09:00:22.160Z,9.50
2019-03-19T09:06:35.852Z,9.60
2019-03-19T09:09:12.175Z,9.40
2019-03-19T09:11:42.870Z,8.30
2019-03-19T09:14:13.509Z,9.30
2019-03-19T09:16:44.621Z,8.90
2019-03-19T09:23:09.522Z,9.50
2019-03-19T09:25:40.120Z,9.30
2019-03-19T09:28:14.302Z,9.10
2019-03-19T09:30:46.378Z,8.80
2019-03-19T09:33:17.062Z,8.30
2019-03-19T09:39:33.164Z,8.00
2019-03-19T09:42:03.809Z,8.90
2019-03-19T09:44:36.782Z,8.30
2019-03-19T09:47:07.535Z,8.50
2019-03-19T09:49:38.130Z,8.00
2019-03-19T09:56:06.141Z,7.50
2019-03-19T09:58:36.795Z,12.60
2019-03-19T10:01:07.310Z,12.00
2019-03-19T10:03:39.752Z,10.80
2019-03-19T10:06:14.255Z,9.30
2019-03-19T10:08:44.331Z,8.40
2019-03-19T10:11:16.601Z,10.10
2019-03-19T10:13:49.221Z,13.20
2019-03-19T10:16:19.829Z,15.50
2019-03-19T10:18:54.262Z,18.00
2019-03-19T10:21:28.040Z,17.30
2019-03-19T10:24:02.234Z,14.50
2019-03-19T10:26:37.497Z,11.60
2019-03-19T10:29:15.873Z,10.00
2019-03-19T10:31:46.590Z,9.20
2019-03-19T10:34:25.068Z,10.50
2019-03-19T10:36:59.020Z,14.20
2019-03-19T10:39:33.377Z,15.30
2019-03-19T10:42:07.467Z,14.70
2019-03-19T10:44:44.683Z,17.00
2019-03-19T10:47:22.001Z,17.10
2019-03-19T10:49:56.001Z,15.30
2019-03-19T10:52:26.792Z,13.50
2019-03-19T10:54:58.818Z,11.50
2019-03-19T10:57:29.388Z,9.90
2019-03-19T11:00:11.124Z,9.50
2019-03-19T11:06:31.214Z,8.70
2019-03-19T11:09:04.870Z,12.20
2019-03-19T11:11:39.663Z,16.40
2019-03-19T11:14:12.603Z,19.20
2019-03-19T11:16:46.539Z,19.50
2019-03-19T11:19:20.901Z,18.70
2019-03-19T11:21:51.744Z,14.20
2019-03-19T11:24:22.653Z,11.90
2019-03-19T11:26:53.344Z,15.80
2019-03-19T11:29:25.843Z,15.70
2019-03-19T11:31:57.611Z,16.10
2019-03-19T11:34:28.884Z,18.60
2019-03-19T11:37:02.757Z,20.70
2019-03-19T11:39:33.795Z,19.50
2019-03-19T11:42:04.635Z,19.50
2019-03-19T11:48:29.784Z,22.00
2019-03-19T11:51:01.746Z,18.00
2019-03-19T11:53:32.410Z,19.40
2019-03-19T11:56:03.278Z,20.50
2019-03-19T11:58:35.731Z,21.00
2019-03-19T12:01:08.187Z,23.20
2019-03-19T12:07:21.670Z,17.00
2019-03-19T12:09:54.328Z,13.00
2019-03-19T12:12:26.587Z,11.30
2019-03-19T12:18:39.150Z,9.90
2019-03-19T12:25:09.018Z,10.00
2019-03-19T12:27:45.767Z,11.10
2019-03-19T12:30:22.287Z,13.20
2019-03-19T12:32:53.908Z,15.00
2019-03-19T12:35:25.745Z,13.00
2019-03-19T12:37:59.528Z,12.10
2019-03-19T12:40:37.146Z,13.20
2019-03-19T12:43:06.178Z,15.30
2019-03-19T12:45:38.212Z,13.80
2019-03-19T12:48:12.987Z,11.80
2019-03-19T12:50:43.701Z,11.10
2019-03-19T12:53:14.427Z,13.20
2019-03-19T12:55:48.327Z,15.20
2019-03-19T12:58:19.090Z,16.00
2019-03-19T13:00:50.159Z,14.80
2019-03-19T13:03:22.895Z,14.10
2019-03-19T13:05:53.998Z,12.30
2019-03-19T13:08:26.285Z,10.70
2019-03-19T13:11:00.081Z,10.10
2019-03-19T13:13:31.236Z,10.30
2019-03-19T13:16:01.977Z,10.10
2019-03-19T13:18:32.600Z,10.70
2019-03-19T13:21:03.245Z,11.30
2019-03-19T13:23:34.150Z,11.70
2019-03-19T13:29:47.286Z,11.60
2019-03-19T13:32:23.758Z,10.70
2019-03-19T13:34:54.553Z,10.20
2019-03-19T13:37:31.234Z,10.00
2019-03-19T13:40:04.137Z,9.80
2019-03-19T13:42:34.984Z,9.60
2019-03-19T13:45:08.866Z,9.40
2019-03-19T13:47:41.006Z,9.30
2019-03-19T13:50:13.043Z,9.30
2019-03-19T13:52:46.461Z,9.20
2019-03-19T13:55:17.217Z,9.30
2019-03-19T13:57:48.142Z,9.50
2019-03-19T14:00:19.690Z,9.50
2019-03-19T14:02:51.622Z,9.70
2019-03-19T14:05:22.933Z,9.90
2019-03-19T14:07:53.761Z,10.10
2019-03-19T14:10:33.268Z,9.90
2019-03-19T14:13:04.952Z,9.70
2019-03-19T14:15:37.203Z,9.30
2019-03-19T14:18:09.420Z,9.10
2019-03-19T14:20:41.243Z,9.00
2019-03-19T14:23:12.613Z,8.70
2019-03-19T14:25:43.467Z,8.40
2019-03-19T14:32:11.616Z,8.00
2019-03-19T14:34:44.720Z,8.00
2019-03-19T14:37:17.603Z,8.00
2019-03-19T14:39:51.133Z,8.20
2019-03-19T14:42:24.365Z,8.40
2019-03-19T14:44:54.941Z,8.50
2019-03-19T14:47:28.137Z,8.50
2019-03-19T14:49:58.123Z,8.60
2019-03-19T14:52:32.210Z,8.50
2019-03-19T14:55:04.499Z,8.50
2019-03-19T14:57:35.140Z,8.40
2019-03-19T15:00:08.062Z,8.40
2019-03-19T15:06:38.854Z,8.30
2019-03-19T15:09:14.842Z,8.10
2019-03-19T15:11:47.224Z,8.00
2019-03-19T15:14:17.899Z,7.90
2019-03-19T15:16:48.544Z,8.00
2019-03-19T15:19:19.345Z,8.10
2019-03-19T15:21:50.977Z,8.10
2019-03-19T15:24:21.562Z,8.20
2019-03-19T15:26:54.625Z,8.20
2019-03-19T15:29:25.220Z,8.10
2019-03-19T15:31:57.596Z,8.10
2019-03-19T15:34:29.821Z,7.90
2019-03-19T15:37:03.650Z,7.80
2019-03-19T15:39:37.113Z,7.80
2019-03-19T15:42:11.172Z,7.80
2019-03-19T15:44:41.909Z,7.80
2019-03-19T15:47:12.447Z,7.80
2019-03-19T15:49:43.136Z,7.90
2019-03-19T15:52:17.592Z,8.00
2019-03-19T15:54:48.442Z,8.00
2019-03-19T15:57:21.199Z,7.90
2019-03-19T15:59:51.736Z,7.90
2019-03-19T16:02:22.739Z,7.90
2019-03-19T16:04:53.358Z,7.70
2019-03-19T16:07:24.006Z,7.60
2019-03-19T16:09:54.641Z,7.50
2019-03-19T16:12:28.327Z,7.40
2019-03-19T16:15:02.941Z,7.30
2019-03-19T16:21:17.953Z,7.20
2019-03-19T16:23:48.461Z,7.10
2019-03-19T16:26:19.665Z,6.90
2019-03-19T16:28:50.245Z,6.90
2019-03-19T16:35:22.717Z,6.80
2019-03-19T16:37:55.442Z,6.60
2019-03-19T16:43:56.432Z,6.60
2019-03-19T16:46:32.133Z,6.50
2019-03-19T16:52:47.055Z,6.30
2019-03-19T16:55:17.799Z,6.20
2019-03-19T16:57:48.584Z,6.10
2019-03-19T17:00:19.333Z,6.00
2019-03-19T17:02:50.223Z,5.90
2019-03-19T17:09:06.224Z,5.70
2019-03-19T17:15:38.563Z,5.20
2019-03-19T17:18:09.252Z,5.00
2019-03-19T17:20:39.888Z,4.90
2019-03-19T17:23:10.491Z,4.80
2019-03-19T17:25:45.572Z,4.70
2019-03-19T17:28:22.785Z,4.60
2019-03-19T17:30:52.127Z,4.60
2019-03-19T17:33:24.151Z,4.70
2019-03-19T17:35:55.894Z,4.80
2019-03-19T17:38:28.506Z,4.90
2019-03-19T17:41:01.937Z,4.90
2019-03-19T17:43:32.949Z,4.90
2019-03-19T17:46:03.815Z,4.90
2019-03-19T17:48:34.396Z,4.90
2019-03-19T17:51:05.711Z,4.90
2019-03-19T17:53:40.605Z,4.90
2019-03-19T18:00:09.169Z,4.80
2019-03-19T18:02:40.968Z,4.80
2019-03-19T18:05:16.075Z,4.80
2019-03-19T18:07:47.500Z,4.70
2019-03-19T18:10:18.550Z,4.70
2019-03-19T18:12:50.895Z,4.70
2019-03-19T18:15:21.557Z,4.70
2019-03-19T18:17:55.278Z,4.60
2019-03-19T18:20:25.967Z,4.60
2019-03-19T18:22:56.543Z,4.70
2019-03-19T18:25:33.317Z,4.50
2019-03-19T18:28:06.090Z,4.50
2019-03-19T18:30:39.722Z,4.40
2019-03-19T18:36:54.302Z,4.00
2019-03-19T18:39:25.962Z,3.60
2019-03-19T18:41:56.572Z,3.40
2019-03-19T18:44:27.214Z,3.30
2019-03-19T18:50:52.010Z,3.20
2019-03-19T18:53:25.955Z,3.00
2019-03-19T18:55:56.539Z,3.00
2019-03-19T18:58:27.220Z,2.80
2019-03-19T19:00:57.911Z,2.60
2019-03-19T19:07:23.796Z,2.20
2019-03-19T19:13:37.509Z,2.00
2019-03-19T19:19:51.367Z,2.00
2019-03-19T19:25:52.852Z,2.00
2019-03-19T19:32:19.029Z,1.90
2019-03-19T19:34:52.082Z,2.10
2019-03-19T19:37:23.875Z,1.90
2019-03-19T19:39:54.349Z,1.90
2019-03-19T19:42:26.439Z,2.00
2019-03-19T19:48:39.100Z,2.20
2019-03-19T19:51:09.784Z,2.20
2019-03-19T19:53:40.404Z,2.10
2019-03-19T19:56:12.550Z,2.00
2019-03-19T19:58:43.214Z,1.90
2019-03-19T20:01:13.823Z,1.90
2019-03-19T20:03:46.877Z,1.80
2019-03-19T20:06:17.448Z,1.40
2019-03-19T20:08:56.469Z,1.40
2019-03-19T20:15:13.916Z,1.30
2019-03-19T20:17:45.922Z,1.40
2019-03-19T20:24:03.938Z,1.70
2019-03-19T20:30:35.318Z,1.30
2019-03-19T20:33:06.170Z,1.30
2019-03-19T20:35:39.021Z,1.20
2019-03-19T20:38:13.887Z,1.20
2019-03-19T20:40:47.861Z,1.30
2019-03-19T20:47:04.921Z,1.50
2019-03-19T20:49:35.709Z,1.40
2019-03-19T20:52:06.679Z,1.20
2019-03-19T20:58:19.817Z,1.20
2019-03-19T21:00:53.639Z,1.30
2019-03-19T21:03:35.257Z,1.20
2019-03-19T21:05:58.175Z,1.20
2019-03-19T21:08:31.376Z,1.10
2019-03-19T21:11:01.909Z,1.20
2019-03-19T21:13:37.515Z,1.20
2019-03-19T21:16:12.459Z,1.10
2019-03-19T21:18:43.185Z,1.10
2019-03-19T21:21:13.794Z,1.10
2019-03-19T21:23:44.421Z,1.10
2019-03-19T21:26:16.309Z,1.00
2019-03-19T21:28:46.865Z,0.80
2019-03-19T21:31:17.487Z,0.50
2019-03-19T21:33:51.387Z,0.50
2019-03-19T21:36:22.321Z,0.30
2019-03-19T21:42:57.041Z,0.30
2019-03-19T21:45:27.842Z,0.40
2019-03-19T21:48:00.052Z,0.30
2019-03-19T21:50:30.677Z,0.30
2019-03-19T21:53:05.248Z,0.40
2019-03-19T21:55:35.983Z,0.40
2019-03-19T21:58:07.867Z,0.40
2019-03-19T22:00:38.493Z,0.40
2019-03-19T22:03:11.908Z,0.30
2019-03-19T22:05:45.547Z,0.40
2019-03-19T22:08:22.748Z,0.30
2019-03-19T22:10:54.722Z,0.40
2019-03-19T22:16:57.206Z,0.40
2019-03-19T22:19:27.827Z,0.30
2019-03-19T22:21:58.467Z,0.10
2019-03-19T22:28:17.636Z,0.20
2019-03-19T22:30:48.139Z,0.20
2019-03-19T22:37:06.128Z,-0.10
2019-03-19T22:39:36.964Z,-0.30
2019-03-19T22:42:10.604Z,-0.10
2019-03-19T22:44:47.403Z,-0.10
2019-03-19T22:47:19.488Z,-0.30
2019-03-19T22:49:50.177Z,-0.60
2019-03-19T22:52:20.844Z,-0.90
2019-03-19T22:54:51.856Z,-1.00
2019-03-19T22:57:25.452Z,-1.20
2019-03-19T23:03:43.408Z,-0.90
2019-03-19T23:06:14.164Z,-0.70
2019-03-19T23:08:50.072Z,-0.70
2019-03-19T23:11:20.595Z,-0.60
2019-03-19T23:17:34.724Z,-0.90
2019-03-19T23:20:06.885Z,-0.90
2019-03-19T23:22:37.691Z,-0.90
2019-03-19T23:28:54.823Z,-1.10
2019-03-19T23:34:59.652Z,-0.80
2019-03-19T23:37:30.184Z,-0.60
2019-03-19T23:40:02.328Z,-0.60
2019-03-19T23:42:36.837Z,-0.70
2019-03-19T23:45:08.111Z,-0.60
2019-03-19T23:47:39.760Z,-0.70
2019-03-19T23:50:12.247Z,-0.60
2019-03-19T23:52:50.512Z,-0.50
2019-03-19T23:55:25.543Z,-0.50
2019-03-19T23:57:56.211Z,-0.60
